createdAt,value
2023-04-20T00:07:42.208Z,6.24
2023-04-20T00:22:45.070Z,6.18
2023-04-20T00:37:47.716Z,6.18
2023-04-20T00:52:50.633Z,6.22
2023-04-20T01:07:53.576Z,6.21
2023-04-20T01:22:56.236Z,6.22
2023-04-20T01:37:58.782Z,6.19
2023-04-20T01:53:01.452Z,6.17
2023-04-20T02:08:04.485Z,6.19
2023-04-20T02:23:07.570Z,6.20
2023-04-20T02:38:10.464Z,6.20
2023-04-20T02:53:13.232Z,6.25
2023-04-20T03:08:15.848Z,6.20
2023-04-20T03:23:18.603Z,6.21
2023-04-20T03:38:21.248Z,6.26
2023-04-20T03:53:24.024Z,6.30
2023-04-20T04:08:26.905Z,6.35
2023-04-20T04:23:29.775Z,6.40
2023-04-20T04:38:33.580Z,6.46
2023-04-20T04:53:37.054Z,6.63
2023-04-20T05:08:40.568Z,6.89
2023-04-20T05:23:44.273Z,7.20
2023-04-20T05:38:47.216Z,7.36
2023-04-20T05:53:49.867Z,7.50
2023-04-20T06:08:53.162Z,7.61
2023-04-20T06:23:55.929Z,7.69
2023-04-20T06:38:58.510Z,7.76
2023-04-20T06:54:01.139Z,7.96
2023-04-20T07:09:04.941Z,8.33
2023-04-20T07:24:07.580Z,8.97
2023-04-20T07:39:10.224Z,9.80
2023-04-20T07:54:12.979Z,10.22
2023-04-20T08:09:15.865Z,10.49
2023-04-20T08:24:19.288Z,10.34
2023-04-20T08:39:24.412Z,10.66
2023-04-20T08:54:27.467Z,10.53
2023-04-20T09:09:30.207Z,10.33
2023-04-20T09:24:34.031Z,10.97
2023-04-20T09:39:40.547Z,11.81
2023-04-20T09:54:43.986Z,13.21
2023-04-20T10:09:46.732Z,14.29
2023-04-20T10:24:49.340Z,14.40
2023-04-20T10:39:51.929Z,16.37
2023-04-20T10:54:54.501Z,15.07
2023-04-20T11:09:57.856Z,15.46
2023-04-20T11:25:09.266Z,15.56
2023-04-20T11:40:13.331Z,16.17
2023-04-20T11:55:16.614Z,16.53
2023-04-20T12:10:19.443Z,16.09
2023-04-20T12:25:22.083Z,16.55
2023-04-20T12:40:25.000Z,16.54
2023-04-20T12:55:27.738Z,17.16
2023-04-20T13:10:30.664Z,16.67
2023-04-20T13:25:33.815Z,16.52
2023-04-20T13:40:36.475Z,16.70
2023-04-20T13:55:39.135Z,17.07
2023-04-20T14:10:42.424Z,16.78
2023-04-20T14:25:45.325Z,17.21
2023-04-20T14:40:48.576Z,16.75
2023-04-20T14:55:52.187Z,16.87
2023-04-20T15:10:57.833Z,16.96
2023-04-20T15:26:00.509Z,16.79
2023-04-20T15:41:03.142Z,16.51
2023-04-20T15:56:05.830Z,16.37
2023-04-20T16:11:08.879Z,16.16
2023-04-20T16:26:11.545Z,16.17
2023-04-20T16:41:14.667Z,16.11
2023-04-20T16:56:17.303Z,15.89
2023-04-20T17:11:20.079Z,15.81
2023-04-20T17:26:22.994Z,15.50
2023-04-20T17:41:25.832Z,15.11
2023-04-20T17:56:28.587Z,14.64
2023-04-20T18:11:31.377Z,14.26
2023-04-20T18:26:34.127Z,14.09
2023-04-20T18:41:37.632Z,13.69
2023-04-20T18:56:40.683Z,13.31
2023-04-20T19:11:43.419Z,13.27
2023-04-20T19:26:46.109Z,13.18
2023-04-20T19:41:48.748Z,13.11
2023-04-20T19:56:51.369Z,12.87
2023-04-20T20:11:53.997Z,12.74
2023-04-20T20:26:57.681Z,12.52
2023-04-20T20:42:01.926Z,12.43
2023-04-20T20:57:04.628Z,12.15
2023-04-20T21:12:07.844Z,11.68
2023-04-20T21:27:10.431Z,11.26
2023-04-20T21:42:13.067Z,10.67
2023-04-20T21:57:15.811Z,10.02
2023-04-20T22:12:32.260Z,9.43
2023-04-20T22:27:39.274Z,8.83
2023-04-20T22:42:42.122Z,8.25
2023-04-20T22:57:44.731Z,7.81
2023-04-20T23:12:49.024Z,7.58
2023-04-20T23:27:51.592Z,7.57
2023-04-20T23:42:55.206Z,8.43
2023-04-20T23:57:58.545Z,9.56
